Time;durP1;ratioP1;P1;durP2;ratioP2;P2;SDS_P1;SDS_P2;PMS_P1;PMS_P2;Temp;Humidity;BMP_temperature;BMP_pressure;BME280_temperature;BME280_humidity;BME280_pressure;Samples;Min_cycle;Max_cycle;Signal;HPM_P1;HPM_P2
2022/06/29 00:01:03;;;;;;;4.00;3.60;;;16.50;99.90;;;;;;20751675;28;20129;-76
2022/06/29 00:11:04;;;;;;;682.03;347.70;;;16.60;99.90;;;;;;20750507;28;20037;-77
2022/06/29 00:21:05;;;;;;;0.20;0.20;;;16.70;99.90;;;;;;20750176;28;20133;-77
2022/06/29 00:31:06;;;;;;;9.77;3.77;;;17.10;99.90;;;;;;20749311;28;20032;-77
2022/06/29 00:41:06;;;;;;;6.07;3.70;;;17.20;99.90;;;;;;20748733;28;20046;-77
2022/06/29 00:51:10;;;;;;;4.67;3.40;;;17.20;99.90;;;;;;20747943;28;20494;-77
2022/06/29 01:01:12;;;;;;;7.95;3.78;;;17.00;99.90;;;;;;20747306;28;20042;-77
2022/06/29 01:11:13;;;;;;;4.30;3.70;;;17.10;99.90;;;;;;20746295;28;20049;-76
2022/06/29 01:21:17;;;;;;;5.30;3.73;;;17.20;99.90;;;;;;20744922;28;20528;-77
2022/06/29 01:31:18;;;;;;;7.90;3.88;;;17.30;99.90;;;;;;20745027;28;20108;-77
2022/06/29 01:41:19;;;;;;;4.10;3.70;;;17.20;99.90;;;;;;20728131;28;20513;-76
2022/06/29 01:51:20;;;;;;;9.00;3.53;;;17.10;99.90;;;;;;20743914;28;20029;-77
2022/06/29 02:01:21;;;;;;;4.03;3.60;;;17.10;99.90;;;;;;20777752;23;20497;-76
2022/06/29 02:11:23;;;;;;;6.13;3.55;;;16.60;99.90;;;;;;20832258;23;20084;-76
2022/06/29 02:21:24;;;;;;;5.93;4.28;;;16.50;99.90;;;;;;20826162;28;20038;-76
2022/06/29 02:41:44;;;;;;;3.83;2.70;;;16.10;99.90;;;;;;20847394;28;20057;-76
2022/06/29 02:51:45;;;;;;;1999.90;999.90;;;15.90;99.90;;;;;;20844823;28;20092;-77
2022/06/29 03:01:46;;;;;;;1999.90;999.90;;;15.70;99.90;;;;;;20847088;28;20112;-76
2022/06/29 03:11:47;;;;;;;4.87;3.33;;;15.50;99.90;;;;;;20839826;28;20401;-76
2022/06/29 03:21:47;;;;;;;1999.90;999.90;;;15.40;99.90;;;;;;20841791;28;20370;-76
2022/06/29 03:31:48;;;;;;;1999.90;999.90;;;15.30;99.90;;;;;;20839784;28;20528;-77
2022/06/29 03:41:49;;;;;;;8.03;4.90;;;15.40;99.90;;;;;;20836970;28;20063;-77
2022/06/29 03:51:50;;;;;;;7.13;4.40;;;15.30;99.90;;;;;;20820905;28;20083;-79
2022/06/29 04:01:50;;;;;;;8.10;4.90;;;15.40;99.90;;;;;;20819525;28;20489;-74
2022/06/29 04:11:55;;;;;;;5.67;3.83;;;15.80;99.90;;;;;;20826515;28;20409;-74
2022/06/29 04:21:57;;;;;;;1999.90;999.90;;;16.00;99.90;;;;;;20814960;28;20033;-75
2022/06/29 04:31:58;;;;;;;;;;;15.90;99.90;;;;;;20831993;28;20037;-75
2022/06/29 04:41:59;;;;;;;1999.90;999.90;;;16.30;99.90;;;;;;20831388;28;20308;-75
2022/06/29 04:51:59;;;;;;;1999.90;999.90;;;16.40;99.90;;;;;;20829454;28;20284;-75
2022/06/29 05:02:00;;;;;;;1999.90;999.90;;;16.80;99.90;;;;;;20828243;28;20033;-76
2022/06/29 05:12:01;;;;;;;1999.90;999.90;;;16.40;99.90;;;;;;20828294;28;20033;-76
2022/06/29 05:22:02;;;;;;;60.77;11.10;;;16.70;99.90;;;;;;20827239;28;20573;-75
2022/06/29 05:32:03;;;;;;;1999.90;999.90;;;17.20;99.90;;;;;;20826540;28;20037;-75
2022/06/29 05:42:04;;;;;;;1377.77;672.70;;;17.50;99.90;;;;;;20825750;28;20037;-75
2022/06/29 05:52:05;;;;;;;2.78;2.08;;;17.70;99.90;;;;;;20825687;28;20025;-76
2022/06/29 06:02:06;;;;;;;1347.53;680.07;;;18.20;99.90;;;;;;20825239;28;20029;-75
2022/06/29 06:12:07;;;;;;;1999.90;999.90;;;18.50;99.90;;;;;;20824000;28;20652;-76
2022/06/29 06:22:08;;;;;;;1999.90;999.90;;;19.00;99.90;;;;;;20824328;28;20029;-76
2022/06/29 06:32:09;;;;;;;1999.90;999.90;;;19.30;99.90;;;;;;20823829;28;20108;-76
2022/06/29 06:42:10;;;;;;;1.20;0.87;;;19.70;99.90;;;;;;20824077;28;20095;-75
2022/06/29 06:52:17;;;;;;;1.75;0.73;;;20.30;99.90;;;;;;20822287;28;20401;-76
2022/06/29 07:02:17;;;;;;;1999.90;999.90;;;20.60;99.90;;;;;;20823716;28;20033;-76
2022/06/29 07:12:18;;;;;;;315.77;26.00;;;20.60;99.90;;;;;;20822970;28;20034;-76
2022/06/29 07:22:19;;;;;;;164.43;22.30;;;21.10;99.90;;;;;;20828831;28;20547;-76
2022/06/29 07:32:20;;;;;;;59.93;8.53;;;21.60;99.90;;;;;;20837335;28;20040;-76
2022/06/29 07:42:21;;;;;;;1.23;0.70;;;22.00;99.90;;;;;;20836151;28;20387;-76
2022/06/29 07:52:22;;;;;;;4.73;3.33;;;22.40;99.90;;;;;;20837420;28;20060;-76
2022/06/29 08:02:23;;;;;;;1999.90;999.90;;;22.90;99.90;;;;;;20834643;28;20068;-76
2022/06/29 08:12:24;;;;;;;1999.90;999.90;;;23.30;99.90;;;;;;20832492;28;20064;-76
2022/06/29 08:22:25;;;;;;;1999.90;999.90;;;23.10;99.90;;;;;;20831824;28;20029;-76
2022/06/29 08:32:26;;;;;;;;;;;23.80;99.90;;;;;;20830972;28;20130;-76
2022/06/29 08:42:27;;;;;;;1.33;1.33;;;23.90;99.90;;;;;;20830906;28;20358;-76
2022/06/29 08:52:27;;;;;;;;;;;24.60;99.90;;;;;;20829819;28;20068;-75
2022/06/29 09:02:29;;;;;;;0.17;0.17;;;24.50;99.90;;;;;;20829033;28;19909;-75
2022/06/29 09:12:31;;;;;;;10.80;10.00;;;25.20;99.90;;;;;;20827932;28;20103;-75
2022/06/29 09:22:32;;;;;;;7.10;6.75;;;24.90;99.90;;;;;;20827251;28;20034;-75
2022/06/29 09:32:33;;;;;;;;;;;24.20;99.90;;;;;;20827046;28;20034;-75
2022/06/29 09:42:34;;;;;;;21.27;20.15;;;25.40;99.90;;;;;;20824121;28;20312;-75
2022/06/29 09:52:38;;;;;;;7.38;6.97;;;25.80;99.90;;;;;;20825105;28;20036;-75
2022/06/29 10:02:41;;;;;;;0.20;0.20;;;25.70;99.90;;;;;;20824707;28;20033;-74
2022/06/29 10:23:48;;;;;;;0.30;0.30;;;24.50;99.90;;;;;;20823784;28;20037;-74
2022/06/29 10:33:49;;;;;;;18.25;17.25;;;24.60;99.90;;;;;;20824082;28;20402;-74
2022/06/29 10:43:50;;;;;;;1999.90;999.90;;;26.00;99.90;;;;;;20823014;28;20033;-75
2022/06/29 10:53:51;;;;;;;83.47;25.05;;;26.20;99.90;;;;;;20825017;28;20043;-75
2022/06/29 11:03:54;;;;;;;0.63;0.57;;;25.80;99.90;;;;;;20837952;28;20108;-75
2022/06/29 11:13:57;;;;;;;1.10;0.73;;;25.30;99.90;;;;;;20836361;28;20790;-75
2022/06/29 11:24:03;;;;;;;85.40;63.17;;;25.80;99.90;;;;;;20834817;28;20656;-75
2022/06/29 11:34:04;;;;;;;2.58;2.38;;;24.90;99.90;;;;;;20835775;28;20044;-75
2022/06/29 11:44:06;;;;;;;1999.90;999.90;;;24.80;99.90;;;;;;20834870;28;20391;-75
2022/06/29 11:54:07;;;;;;;1999.90;999.90;;;24.90;99.90;;;;;;20834250;28;20072;-75
2022/06/29 12:04:09;;;;;;;1999.90;999.90;;;25.20;99.90;;;;;;20833231;28;20049;-75
2022/06/29 12:14:10;;;;;;;1999.90;999.90;;;25.30;99.90;;;;;;20831677;28;20060;-75
2022/06/29 12:24:11;;;;;;;1999.90;999.90;;;25.80;99.90;;;;;;20832023;28;20029;-75
2022/06/29 12:34:13;;;;;;;1999.90;999.90;;;25.70;99.90;;;;;;20830736;28;20033;-75
2022/06/29 12:44:14;;;;;;;1999.90;999.90;;;25.40;99.90;;;;;;20830137;28;20061;-76
2022/06/29 12:54:17;;;;;;;1999.90;999.90;;;25.10;99.90;;;;;;20830159;28;20025;-75
2022/06/29 13:04:19;;;;;;;16.42;15.55;;;25.60;99.90;;;;;;20828818;28;20367;-75
2022/06/29 13:14:20;;;;;;;1999.90;999.90;;;26.60;99.90;;;;;;20829328;28;20404;-75
2022/06/29 13:24:21;;;;;;;24.92;23.58;;;27.50;99.90;;;;;;20832577;28;20041;-75
2022/06/29 13:34:24;;;;;;;1.10;0.70;;;28.40;99.90;;;;;;20826949;28;20503;-75
2022/06/29 13:44:25;;;;;;;1999.90;999.90;;;27.80;99.90;;;;;;20824455;28;20037;-75
2022/06/29 13:54:26;;;;;;;1999.90;999.90;;;28.30;99.90;;;;;;20809514;28;20106;-76
2022/06/29 14:04:28;;;;;;;1999.90;999.90;;;27.60;99.90;;;;;;20836738;23;20045;-73
2022/06/29 14:14:29;;;;;;;4.38;2.97;;;27.80;99.90;;;;;;20848712;28;20121;-73
2022/06/29 14:24:31;;;;;;;1999.90;999.90;;;28.40;99.90;;;;;;20803660;28;20136;-74
2022/06/29 14:34:33;;;;;;;1.40;1.10;;;28.50;99.90;;;;;;20818001;28;20124;-74
2022/06/29 14:44:34;;;;;;;2.15;1.23;;;28.10;99.90;;;;;;20818678;28;20026;-73
2022/06/29 14:54:35;;;;;;;1.88;1.13;;;29.10;99.90;;;;;;20819726;28;20041;-74
2022/06/29 15:04:36;;;;;;;1.83;1.00;;;28.00;99.90;;;;;;20816451;28;20171;-74
2022/06/29 15:14:37;;;;;;;1999.90;999.90;;;28.50;99.90;;;;;;20816527;28;20163;-74
2022/06/29 15:24:38;;;;;;;1999.90;999.90;;;27.80;99.90;;;;;;20815259;28;20036;-74
2022/06/29 15:44:58;;;;;;;1999.90;999.90;;;27.70;99.90;;;;;;20814631;28;20033;-74
2022/06/29 16:05:18;;;;;;;1541.53;201.43;;;27.80;99.90;;;;;;20815812;28;20033;-74
2022/06/29 16:15:19;;;;;;;4.97;1.35;;;27.60;99.90;;;;;;20783152;28;20034;-73
2022/06/29 16:25:20;;;;;;;3.08;1.55;;;27.10;99.90;;;;;;20827856;28;20044;-73
2022/06/29 16:35:20;;;;;;;2.42;1.05;;;27.10;99.90;;;;;;20829144;28;20470;-74
2022/06/29 16:45:21;;;;;;;1.65;1.30;;;27.00;99.90;;;;;;20812265;28;20144;-75
2022/06/29 16:55:24;;;;;;;1.63;1.13;;;26.60;99.90;;;;;;20810139;28;20048;-73
2022/06/29 17:05:25;;;;;;;4.78;1.50;;;26.80;99.90;;;;;;20811094;28;20059;-76
2022/06/29 17:15:26;;;;;;;1.80;1.20;;;27.20;99.90;;;;;;20808916;28;20034;-76
2022/06/29 17:25:27;;;;;;;6.15;1.38;;;26.80;99.90;;;;;;20821340;28;20035;-75
2022/06/29 17:35:28;;;;;;;4.15;1.40;;;26.60;99.90;;;;;;20808808;28;20531;-76
2022/06/29 17:45:29;;;;;;;6.18;1.10;;;26.50;99.90;;;;;;20810908;28;20033;-77
2022/06/29 17:55:30;;;;;;;3.50;1.30;;;26.20;99.90;;;;;;20807298;28;20046;-76
2022/06/29 18:05:31;;;;;;;4.07;1.50;;;26.70;99.90;;;;;;20805324;28;20555;-76
2022/06/29 18:15:32;;;;;;;2.97;1.20;;;28.70;99.90;;;;;;20805650;28;20140;-76
2022/06/29 18:25:33;;;;;;;6.47;1.30;;;29.90;99.90;;;;;;20804887;28;20397;-75
2022/06/29 18:35:34;;;;;;;5.90;1.10;;;29.80;99.90;;;;;;20801067;28;20030;-76
2022/06/29 18:45:36;;;;;;;5.88;1.25;;;29.50;99.90;;;;;;20802424;28;20568;-76
2022/06/29 18:55:36;;;;;;;258.60;24.85;;;27.00;99.90;;;;;;20807176;28;20084;-75
2022/06/29 19:05:37;;;;;;;5.25;1.15;;;24.70;99.90;;;;;;20800001;28;20065;-77
2022/06/29 19:15:39;;;;;;;4.80;1.70;;;23.90;99.90;;;;;;20807370;28;20030;-76
2022/06/29 19:25:40;;;;;;;4.40;1.73;;;23.30;99.90;;;;;;20817407;28;20076;-75
2022/06/29 19:35:40;;;;;;;;;;;22.60;99.90;;;;;;20787331;28;20568;-76
2022/06/29 19:45:42;;;;;;;2.87;1.70;;;22.10;99.90;;;;;;20821543;28;20400;-76
2022/06/29 19:55:43;;;;;;;2.33;1.60;;;21.40;99.90;;;;;;20817802;28;20045;-75
2022/06/29 20:05:45;;;;;;;;;;;20.90;99.90;;;;;;20831046;23;20505;-76
2022/06/29 20:15:46;;;;;;;2.67;1.87;;;20.50;99.90;;;;;;20813893;28;20569;-76
2022/06/29 20:25:47;;;;;;;4.53;1.90;;;20.50;99.90;;;;;;20813147;28;20045;-76
2022/06/29 20:35:48;;;;;;;3.13;1.77;;;20.10;99.90;;;;;;20767128;28;20425;-75
2022/06/29 20:45:48;;;;;;;3.50;2.03;;;19.70;99.90;;;;;;20747213;28;20022;-76
2022/06/29 20:55:49;;;;;;;9.57;2.97;;;19.70;99.90;;;;;;20727723;28;20100;-75
2022/06/29 21:05:53;;;;;;;3.83;1.90;;;19.00;99.90;;;;;;20728423;28;20110;-76
2022/06/29 21:15:54;;;;;;;5.83;2.20;;;18.50;99.90;;;;;;20744780;28;20094;-76
2022/06/29 21:25:58;;;;;;;3.53;2.10;;;18.50;99.90;;;;;;20726415;28;20703;-77
2022/06/29 21:35:59;;;;;;;2.70;2.23;;;18.30;99.90;;;;;;20726118;28;20030;-77
2022/06/29 21:46:04;;;;;;;3.30;2.38;;;18.00;99.90;;;;;;20742590;28;20026;-77
2022/06/29 21:56:05;;;;;;;4.93;2.17;;;18.00;99.90;;;;;;20743909;28;20405;-77
2022/06/29 22:06:06;;;;;;;;;;;17.80;99.90;;;;;;20725862;28;20029;-77
2022/06/29 22:16:07;;;;;;;5.38;2.60;;;17.50;99.90;;;;;;20725089;28;19910;-77
2022/06/29 22:26:08;;;;;;;6.07;2.37;;;17.40;99.90;;;;;;20742313;28;20470;-77
2022/06/29 22:36:09;;;;;;;3.77;2.07;;;17.10;99.90;;;;;;20725573;28;20054;-76
2022/06/29 22:46:11;;;;;;;7.07;2.03;;;16.90;99.90;;;;;;20741509;28;20033;-77
2022/06/29 22:56:12;;;;;;;4.50;2.28;;;16.70;99.90;;;;;;20753301;28;20449;-77
2022/06/29 23:06:13;;;;;;;3.83;2.20;;;16.80;99.90;;;;;;20756278;28;20069;-77
2022/06/29 23:16:14;;;;;;;3.97;2.20;;;16.70;99.90;;;;;;20755815;28;20041;-77
2022/06/29 23:26:15;;;;;;;2.53;2.33;;;16.60;99.90;;;;;;20755213;28;20061;-77
2022/06/29 23:36:15;;;;;;;3.77;2.10;;;16.20;99.90;;;;;;20754538;28;20061;-77
2022/06/29 23:46:16;;;;;;;3.43;2.53;;;16.20;99.90;;;;;;20753840;28;20477;-77
2022/06/29 23:56:17;;;;;;;3.00;2.20;;;16.00;99.90;;;;;;20753071;28;20116;-77
